sensor_id;sensor_type;location;lat;lon;timestamp;P1;durP1;ratioP1;P2;durP2;ratioP2
79664;SDS011;69132;44.014;20.918;2023-07-31T00:02:23;15.30;;;13.85;;
79664;SDS011;69132;44.014;20.918;2023-07-31T00:04:49;14.25;;;12.85;;
79664;SDS011;69132;44.014;20.918;2023-07-31T00:07:15;14.80;;;13.30;;
79664;SDS011;69132;44.014;20.918;2023-07-31T00:09:42;14.52;;;13.07;;
79664;SDS011;69132;44.014;20.918;2023-07-31T00:12:09;15.57;;;13.97;;
79664;SDS011;69132;44.014;20.918;2023-07-31T00:14:35;15.65;;;14.00;;
79664;SDS011;69132;44.014;20.918;2023-07-31T00:17:02;15.52;;;14.00;;
79664;SDS011;69132;44.014;20.918;2023-07-31T00:19:30;14.10;;;12.75;;
79664;SDS011;69132;44.014;20.918;2023-07-31T00:21:56;14.75;;;13.38;;
79664;SDS011;69132;44.014;20.918;2023-07-31T00:24:23;15.90;;;14.30;;
79664;SDS011;69132;44.014;20.918;2023-07-31T00:26:49;15.20;;;13.70;;
79664;SDS011;69132;44.014;20.918;2023-07-31T00:29:19;15.57;;;14.10;;
79664;SDS011;69132;44.014;20.918;2023-07-31T00:31:45;16.83;;;14.57;;
79664;SDS011;69132;44.014;20.918;2023-07-31T00:39:52;15.70;;;14.10;;
79664;SDS011;69132;44.014;20.918;2023-07-31T00:42:19;16.00;;;14.30;;
79664;SDS011;69132;44.014;20.918;2023-07-31T00:44:45;16.35;;;14.75;;
79664;SDS011;69132;44.014;20.918;2023-07-31T00:47:13;16.55;;;14.90;;
79664;SDS011;69132;44.014;20.918;2023-07-31T00:49:40;15.45;;;13.95;;
79664;SDS011;69132;44.014;20.918;2023-07-31T00:52:09;16.67;;;14.82;;
79664;SDS011;69132;44.014;20.918;2023-07-31T00:54:35;16.77;;;13.85;;
79664;SDS011;69132;44.014;20.918;2023-07-31T00:57:01;16.02;;;14.48;;
79664;SDS011;69132;44.014;20.918;2023-07-31T01:11:02;16.92;;;15.18;;
79664;SDS011;69132;44.014;20.918;2023-07-31T01:13:32;16.60;;;14.90;;
79664;SDS011;69132;44.014;20.918;2023-07-31T01:15:59;19.45;;;17.23;;
79664;SDS011;69132;44.014;20.918;2023-07-31T01:18:25;18.13;;;15.23;;
79664;SDS011;69132;44.014;20.918;2023-07-31T01:20:54;15.85;;;14.10;;
79664;SDS011;69132;44.014;20.918;2023-07-31T01:24:13;15.77;;;14.23;;
79664;SDS011;69132;44.014;20.918;2023-07-31T01:26:12;15.02;;;13.52;;
79664;SDS011;69132;44.014;20.918;2023-07-31T01:31:20;14.90;;;13.50;;
79664;SDS011;69132;44.014;20.918;2023-07-31T01:33:46;16.65;;;13.32;;
79664;SDS011;69132;44.014;20.918;2023-07-31T01:36:13;15.23;;;13.50;;
79664;SDS011;69132;44.014;20.918;2023-07-31T01:38:39;14.70;;;13.18;;
79664;SDS011;69132;44.014;20.918;2023-07-31T01:41:05;15.88;;;14.23;;
79664;SDS011;69132;44.014;20.918;2023-07-31T01:43:33;15.00;;;13.52;;
79664;SDS011;69132;44.014;20.918;2023-07-31T01:45:59;14.85;;;13.18;;
79664;SDS011;69132;44.014;20.918;2023-07-31T01:48:26;14.60;;;13.07;;
79664;SDS011;69132;44.014;20.918;2023-07-31T01:50:52;14.93;;;13.10;;
79664;SDS011;69132;44.014;20.918;2023-07-31T01:53:18;14.32;;;12.73;;
79664;SDS011;69132;44.014;20.918;2023-07-31T01:55:45;14.25;;;12.60;;
79664;SDS011;69132;44.014;20.918;2023-07-31T01:58:11;15.52;;;13.98;;
79664;SDS011;69132;44.014;20.918;2023-07-31T02:00:37;14.70;;;13.10;;
79664;SDS011;69132;44.014;20.918;2023-07-31T02:03:03;15.35;;;13.85;;
79664;SDS011;69132;44.014;20.918;2023-07-31T02:05:29;16.75;;;15.15;;
79664;SDS011;69132;44.014;20.918;2023-07-31T02:07:55;17.63;;;15.45;;
79664;SDS011;69132;44.014;20.918;2023-07-31T02:10:21;15.90;;;14.32;;
79664;SDS011;69132;44.014;20.918;2023-07-31T02:12:47;17.75;;;16.05;;
79664;SDS011;69132;44.014;20.918;2023-07-31T02:15:13;19.50;;;15.70;;
79664;SDS011;69132;44.014;20.918;2023-07-31T02:17:41;20.05;;;16.60;;
79664;SDS011;69132;44.014;20.918;2023-07-31T02:20:07;20.20;;;17.15;;
79664;SDS011;69132;44.014;20.918;2023-07-31T02:22:33;20.50;;;16.90;;
79664;SDS011;69132;44.014;20.918;2023-07-31T02:24:59;21.60;;;17.88;;
79664;SDS011;69132;44.014;20.918;2023-07-31T02:27:25;19.38;;;16.15;;
79664;SDS011;69132;44.014;20.918;2023-07-31T02:29:52;18.52;;;16.55;;
79664;SDS011;69132;44.014;20.918;2023-07-31T02:32:20;18.53;;;16.57;;
79664;SDS011;69132;44.014;20.918;2023-07-31T02:34:46;17.92;;;16.00;;
79664;SDS011;69132;44.014;20.918;2023-07-31T02:37:12;18.65;;;16.80;;
79664;SDS011;69132;44.014;20.918;2023-07-31T02:39:43;19.25;;;17.25;;
79664;SDS011;69132;44.014;20.918;2023-07-31T02:42:09;20.33;;;16.23;;
79664;SDS011;69132;44.014;20.918;2023-07-31T02:44:35;18.75;;;16.75;;
79664;SDS011;69132;44.014;20.918;2023-07-31T02:47:01;19.05;;;17.20;;
79664;SDS011;69132;44.014;20.918;2023-07-31T02:49:28;19.13;;;16.92;;
79664;SDS011;69132;44.014;20.918;2023-07-31T02:51:54;19.08;;;16.83;;
79664;SDS011;69132;44.014;20.918;2023-07-31T02:54:20;18.67;;;16.77;;
79664;SDS011;69132;44.014;20.918;2023-07-31T02:56:47;19.80;;;16.75;;
79664;SDS011;69132;44.014;20.918;2023-07-31T02:59:14;19.63;;;16.73;;
79664;SDS011;69132;44.014;20.918;2023-07-31T03:01:40;19.08;;;16.98;;
79664;SDS011;69132;44.014;20.918;2023-07-31T03:04:07;19.67;;;17.38;;
79664;SDS011;69132;44.014;20.918;2023-07-31T03:06:37;19.65;;;17.58;;
79664;SDS011;69132;44.014;20.918;2023-07-31T03:09:03;20.40;;;18.15;;
79664;SDS011;69132;44.014;20.918;2023-07-31T03:11:29;20.00;;;17.83;;
79664;SDS011;69132;44.014;20.918;2023-07-31T03:13:55;19.33;;;17.33;;
79664;SDS011;69132;44.014;20.918;2023-07-31T03:16:21;19.83;;;17.83;;
79664;SDS011;69132;44.014;20.918;2023-07-31T03:18:47;19.25;;;17.25;;
79664;SDS011;69132;44.014;20.918;2023-07-31T03:21:14;20.63;;;18.42;;
79664;SDS011;69132;44.014;20.918;2023-07-31T03:23:41;25.02;;;19.60;;
79664;SDS011;69132;44.014;20.918;2023-07-31T03:26:09;25.80;;;18.35;;
79664;SDS011;69132;44.014;20.918;2023-07-31T03:28:35;21.35;;;19.00;;
79664;SDS011;69132;44.014;20.918;2023-07-31T03:31:01;20.90;;;18.42;;
79664;SDS011;69132;44.014;20.918;2023-07-31T03:33:29;23.73;;;20.10;;
79664;SDS011;69132;44.014;20.918;2023-07-31T03:35:56;21.33;;;19.13;;
79664;SDS011;69132;44.014;20.918;2023-07-31T03:38:23;25.63;;;19.55;;
79664;SDS011;69132;44.014;20.918;2023-07-31T03:40:49;22.58;;;18.48;;
79664;SDS011;69132;44.014;20.918;2023-07-31T03:43:16;23.67;;;19.05;;
79664;SDS011;69132;44.014;20.918;2023-07-31T03:45:43;21.55;;;19.25;;
79664;SDS011;69132;44.014;20.918;2023-07-31T03:48:09;22.50;;;19.10;;
79664;SDS011;69132;44.014;20.918;2023-07-31T03:50:35;21.67;;;19.23;;
79664;SDS011;69132;44.014;20.918;2023-07-31T03:53:03;27.58;;;20.77;;
79664;SDS011;69132;44.014;20.918;2023-07-31T03:55:29;22.95;;;20.50;;
79664;SDS011;69132;44.014;20.918;2023-07-31T03:57:55;23.17;;;19.88;;
79664;SDS011;69132;44.014;20.918;2023-07-31T04:00:21;24.00;;;18.98;;
79664;SDS011;69132;44.014;20.918;2023-07-31T04:02:48;22.40;;;20.00;;
79664;SDS011;69132;44.014;20.918;2023-07-31T04:05:15;24.63;;;20.05;;
79664;SDS011;69132;44.014;20.918;2023-07-31T04:07:41;24.75;;;19.33;;
79664;SDS011;69132;44.014;20.918;2023-07-31T04:10:07;22.52;;;19.05;;
79664;SDS011;69132;44.014;20.918;2023-07-31T04:12:33;22.50;;;19.17;;
79664;SDS011;69132;44.014;20.918;2023-07-31T04:15:02;21.73;;;19.43;;
79664;SDS011;69132;44.014;20.918;2023-07-31T04:17:29;22.42;;;19.05;;
79664;SDS011;69132;44.014;20.918;2023-07-31T04:19:55;21.10;;;18.08;;
79664;SDS011;69132;44.014;20.918;2023-07-31T04:22:21;23.75;;;19.98;;
79664;SDS011;69132;44.014;20.918;2023-07-31T04:24:47;20.85;;;18.70;;
79664;SDS011;69132;44.014;20.918;2023-07-31T04:27:16;23.83;;;19.13;;
79664;SDS011;69132;44.014;20.918;2023-07-31T04:29:44;22.48;;;19.58;;
79664;SDS011;69132;44.014;20.918;2023-07-31T04:32:13;25.95;;;18.95;;
79664;SDS011;69132;44.014;20.918;2023-07-31T04:34:42;23.38;;;19.98;;
79664;SDS011;69132;44.014;20.918;2023-07-31T04:37:08;24.65;;;20.83;;
79664;SDS011;69132;44.014;20.918;2023-07-31T04:39:35;22.85;;;20.27;;
79664;SDS011;69132;44.014;20.918;2023-07-31T04:42:01;23.88;;;20.42;;
79664;SDS011;69132;44.014;20.918;2023-07-31T04:44:27;22.20;;;18.63;;
79664;SDS011;69132;44.014;20.918;2023-07-31T04:46:53;22.95;;;18.95;;
79664;SDS011;69132;44.014;20.918;2023-07-31T04:49:19;26.30;;;18.05;;
79664;SDS011;69132;44.014;20.918;2023-07-31T04:51:45;24.67;;;19.65;;
79664;SDS011;69132;44.014;20.918;2023-07-31T04:54:12;22.13;;;19.27;;
79664;SDS011;69132;44.014;20.918;2023-07-31T04:56:40;25.83;;;21.38;;
79664;SDS011;69132;44.014;20.918;2023-07-31T04:59:09;24.15;;;19.67;;
79664;SDS011;69132;44.014;20.918;2023-07-31T05:01:35;21.25;;;19.08;;
79664;SDS011;69132;44.014;20.918;2023-07-31T05:04:05;22.40;;;20.07;;
79664;SDS011;69132;44.014;20.918;2023-07-31T05:06:31;23.38;;;20.05;;
79664;SDS011;69132;44.014;20.918;2023-07-31T05:08:59;21.42;;;19.08;;
79664;SDS011;69132;44.014;20.918;2023-07-31T05:11:25;24.73;;;20.83;;
79664;SDS011;69132;44.014;20.918;2023-07-31T05:13:51;22.95;;;20.20;;
79664;SDS011;69132;44.014;20.918;2023-07-31T05:16:17;25.42;;;19.35;;
79664;SDS011;69132;44.014;20.918;2023-07-31T05:18:43;30.75;;;20.52;;
79664;SDS011;69132;44.014;20.918;2023-07-31T05:21:09;25.15;;;19.77;;
79664;SDS011;69132;44.014;20.918;2023-07-31T05:23:35;28.98;;;21.55;;
79664;SDS011;69132;44.014;20.918;2023-07-31T05:26:02;26.30;;;20.27;;
79664;SDS011;69132;44.014;20.918;2023-07-31T05:28:33;28.42;;;21.02;;
79664;SDS011;69132;44.014;20.918;2023-07-31T05:31:02;28.70;;;21.35;;
79664;SDS011;69132;44.014;20.918;2023-07-31T05:33:28;23.77;;;21.20;;
79664;SDS011;69132;44.014;20.918;2023-07-31T05:35:56;25.90;;;22.25;;
79664;SDS011;69132;44.014;20.918;2023-07-31T05:38:22;23.17;;;19.80;;
79664;SDS011;69132;44.014;20.918;2023-07-31T05:40:48;25.65;;;20.15;;
79664;SDS011;69132;44.014;20.918;2023-07-31T05:43:17;23.02;;;20.50;;
79664;SDS011;69132;44.014;20.918;2023-07-31T05:45:43;23.65;;;20.17;;
79664;SDS011;69132;44.014;20.918;2023-07-31T05:48:09;22.95;;;19.40;;
79664;SDS011;69132;44.014;20.918;2023-07-31T05:50:36;23.52;;;20.85;;
79664;SDS011;69132;44.014;20.918;2023-07-31T05:53:04;23.00;;;20.42;;
79664;SDS011;69132;44.014;20.918;2023-07-31T05:55:33;24.90;;;19.95;;
79664;SDS011;69132;44.014;20.918;2023-07-31T05:57:59;22.50;;;18.95;;
79664;SDS011;69132;44.014;20.918;2023-07-31T06:00:25;20.83;;;18.75;;
79664;SDS011;69132;44.014;20.918;2023-07-31T06:02:52;21.67;;;18.27;;
79664;SDS011;69132;44.014;20.918;2023-07-31T06:08:13;19.13;;;16.60;;
79664;SDS011;69132;44.014;20.918;2023-07-31T06:10:39;15.20;;;13.80;;
79664;SDS011;69132;44.014;20.918;2023-07-31T06:13:08;11.95;;;10.85;;
79664;SDS011;69132;44.014;20.918;2023-07-31T06:15:34;12.82;;;11.32;;
79664;SDS011;69132;44.014;20.918;2023-07-31T06:18:01;12.52;;;11.05;;
79664;SDS011;69132;44.014;20.918;2023-07-31T06:20:28;11.73;;;9.30;;
79664;SDS011;69132;44.014;20.918;2023-07-31T06:22:54;9.85;;;7.28;;
79664;SDS011;69132;44.014;20.918;2023-07-31T06:25:20;9.75;;;7.47;;
79664;SDS011;69132;44.014;20.918;2023-07-31T06:27:46;9.55;;;6.43;;
79664;SDS011;69132;44.014;20.918;2023-07-31T06:30:14;10.30;;;6.05;;
79664;SDS011;69132;44.014;20.918;2023-07-31T06:32:40;8.18;;;6.25;;
79664;SDS011;69132;44.014;20.918;2023-07-31T06:35:06;6.20;;;5.60;;
79664;SDS011;69132;44.014;20.918;2023-07-31T06:37:33;4.75;;;4.05;;
79664;SDS011;69132;44.014;20.918;2023-07-31T06:40:00;5.75;;;4.85;;
79664;SDS011;69132;44.014;20.918;2023-07-31T06:42:26;5.50;;;4.53;;
79664;SDS011;69132;44.014;20.918;2023-07-31T06:44:52;4.65;;;4.20;;
79664;SDS011;69132;44.014;20.918;2023-07-31T06:47:18;5.57;;;5.18;;
79664;SDS011;69132;44.014;20.918;2023-07-31T06:49:44;7.43;;;6.72;;
79664;SDS011;69132;44.014;20.918;2023-07-31T06:52:10;8.38;;;7.50;;
79664;SDS011;69132;44.014;20.918;2023-07-31T06:54:37;8.00;;;7.20;;
79664;SDS011;69132;44.014;20.918;2023-07-31T06:57:03;9.50;;;8.70;;
79664;SDS011;69132;44.014;20.918;2023-07-31T06:59:29;9.48;;;8.25;;
79664;SDS011;69132;44.014;20.918;2023-07-31T07:01:56;10.63;;;8.82;;
79664;SDS011;69132;44.014;20.918;2023-07-31T07:04:22;9.40;;;8.70;;
79664;SDS011;69132;44.014;20.918;2023-07-31T07:06:48;8.15;;;7.55;;
79664;SDS011;69132;44.014;20.918;2023-07-31T07:09:14;8.40;;;7.70;;
79664;SDS011;69132;44.014;20.918;2023-07-31T07:11:40;8.60;;;7.88;;
79664;SDS011;69132;44.014;20.918;2023-07-31T07:14:10;8.27;;;6.82;;
79664;SDS011;69132;44.014;20.918;2023-07-31T07:16:37;7.78;;;7.18;;
79664;SDS011;69132;44.014;20.918;2023-07-31T07:19:03;8.50;;;7.80;;
79664;SDS011;69132;44.014;20.918;2023-07-31T07:21:29;9.40;;;8.60;;
79664;SDS011;69132;44.014;20.918;2023-07-31T07:23:55;7.43;;;6.85;;
79664;SDS011;69132;44.014;20.918;2023-07-31T07:26:21;7.57;;;6.88;;
79664;SDS011;69132;44.014;20.918;2023-07-31T07:28:48;7.63;;;7.03;;
79664;SDS011;69132;44.014;20.918;2023-07-31T07:31:14;6.97;;;6.47;;
79664;SDS011;69132;44.014;20.918;2023-07-31T07:33:41;9.07;;;6.37;;
79664;SDS011;69132;44.014;20.918;2023-07-31T07:36:08;8.07;;;7.38;;
79664;SDS011;69132;44.014;20.918;2023-07-31T07:38:34;8.00;;;7.40;;
79664;SDS011;69132;44.014;20.918;2023-07-31T07:41:01;8.13;;;7.47;;
79664;SDS011;69132;44.014;20.918;2023-07-31T07:43:27;8.10;;;7.40;;
79664;SDS011;69132;44.014;20.918;2023-07-31T07:45:53;8.43;;;7.72;;
79664;SDS011;69132;44.014;20.918;2023-07-31T07:48:19;8.57;;;7.88;;
79664;SDS011;69132;44.014;20.918;2023-07-31T07:50:46;9.68;;;8.75;;
79664;SDS011;69132;44.014;20.918;2023-07-31T07:53:12;10.13;;;8.18;;
79664;SDS011;69132;44.014;20.918;2023-07-31T07:55:39;8.80;;;7.90;;
79664;SDS011;69132;44.014;20.918;2023-07-31T07:58:05;9.55;;;8.45;;
79664;SDS011;69132;44.014;20.918;2023-07-31T08:00:31;8.98;;;8.25;;
79664;SDS011;69132;44.014;20.918;2023-07-31T08:02:57;8.73;;;7.93;;
79664;SDS011;69132;44.014;20.918;2023-07-31T08:05:24;9.32;;;7.60;;
79664;SDS011;69132;44.014;20.918;2023-07-31T08:07:50;8.15;;;7.55;;
79664;SDS011;69132;44.014;20.918;2023-07-31T08:10:17;8.80;;;7.95;;
79664;SDS011;69132;44.014;20.918;2023-07-31T08:12:44;7.65;;;7.05;;
79664;SDS011;69132;44.014;20.918;2023-07-31T08:15:10;8.93;;;8.13;;
79664;SDS011;69132;44.014;20.918;2023-07-31T08:17:37;8.85;;;8.05;;
79664;SDS011;69132;44.014;20.918;2023-07-31T08:20:03;9.40;;;8.48;;
79664;SDS011;69132;44.014;20.918;2023-07-31T08:22:29;9.68;;;8.48;;
79664;SDS011;69132;44.014;20.918;2023-07-31T08:24:55;10.13;;;9.00;;
79664;SDS011;69132;44.014;20.918;2023-07-31T08:27:22;8.18;;;7.40;;
79664;SDS011;69132;44.014;20.918;2023-07-31T08:29:48;13.50;;;12.05;;
79664;SDS011;69132;44.014;20.918;2023-07-31T08:32:15;10.20;;;9.02;;
79664;SDS011;69132;44.014;20.918;2023-07-31T08:34:41;8.85;;;7.80;;
79664;SDS011;69132;44.014;20.918;2023-07-31T08:37:26;9.60;;;8.60;;
79664;SDS011;69132;44.014;20.918;2023-07-31T08:39:52;8.02;;;7.43;;
79664;SDS011;69132;44.014;20.918;2023-07-31T08:42:19;10.02;;;8.90;;
79664;SDS011;69132;44.014;20.918;2023-07-31T08:44:46;7.85;;;7.20;;
79664;SDS011;69132;44.014;20.918;2023-07-31T08:47:12;6.45;;;5.78;;
79664;SDS011;69132;44.014;20.918;2023-07-31T08:49:39;7.10;;;6.50;;
79664;SDS011;69132;44.014;20.918;2023-07-31T08:52:06;7.70;;;6.90;;
79664;SDS011;69132;44.014;20.918;2023-07-31T08:54:32;7.05;;;5.97;;
79664;SDS011;69132;44.014;20.918;2023-07-31T08:56:58;7.70;;;7.00;;
79664;SDS011;69132;44.014;20.918;2023-07-31T08:59:26;7.63;;;6.77;;
79664;SDS011;69132;44.014;20.918;2023-07-31T09:01:53;9.20;;;7.68;;
79664;SDS011;69132;44.014;20.918;2023-07-31T09:06:48;7.72;;;7.03;;
79664;SDS011;69132;44.014;20.918;2023-07-31T09:09:15;8.02;;;7.32;;
79664;SDS011;69132;44.014;20.918;2023-07-31T09:11:42;9.27;;;8.38;;
79664;SDS011;69132;44.014;20.918;2023-07-31T09:14:08;8.20;;;7.50;;
79664;SDS011;69132;44.014;20.918;2023-07-31T09:16:36;8.68;;;7.78;;
79664;SDS011;69132;44.014;20.918;2023-07-31T09:21:48;7.90;;;6.78;;
79664;SDS011;69132;44.014;20.918;2023-07-31T09:24:24;6.53;;;5.93;;
79664;SDS011;69132;44.014;20.918;2023-07-31T09:26:53;5.88;;;5.47;;
79664;SDS011;69132;44.014;20.918;2023-07-31T09:29:21;7.43;;;6.65;;
79664;SDS011;69132;44.014;20.918;2023-07-31T09:31:50;5.47;;;4.97;;
79664;SDS011;69132;44.014;20.918;2023-07-31T09:34:16;5.30;;;4.80;;
79664;SDS011;69132;44.014;20.918;2023-07-31T09:36:43;5.20;;;4.80;;
79664;SDS011;69132;44.014;20.918;2023-07-31T09:39:11;5.20;;;4.80;;
79664;SDS011;69132;44.014;20.918;2023-07-31T09:44:38;5.40;;;4.57;;
79664;SDS011;69132;44.014;20.918;2023-07-31T09:47:23;4.63;;;4.22;;
79664;SDS011;69132;44.014;20.918;2023-07-31T09:49:49;11.65;;;4.68;;
79664;SDS011;69132;44.014;20.918;2023-07-31T09:52:15;7.60;;;4.10;;
79664;SDS011;69132;44.014;20.918;2023-07-31T09:54:41;4.30;;;3.90;;
79664;SDS011;69132;44.014;20.918;2023-07-31T09:57:09;6.13;;;4.35;;
79664;SDS011;69132;44.014;20.918;2023-07-31T09:59:36;4.00;;;3.60;;
79664;SDS011;69132;44.014;20.918;2023-07-31T10:02:03;3.55;;;3.25;;
79664;SDS011;69132;44.014;20.918;2023-07-31T10:04:29;8.65;;;4.60;;
79664;SDS011;69132;44.014;20.918;2023-07-31T10:06:56;4.87;;;3.67;;
79664;SDS011;69132;44.014;20.918;2023-07-31T10:09:23;3.35;;;3.03;;
79664;SDS011;69132;44.014;20.918;2023-07-31T10:11:53;3.30;;;3.00;;
79664;SDS011;69132;44.014;20.918;2023-07-31T10:14:21;4.32;;;3.67;;
79664;SDS011;69132;44.014;20.918;2023-07-31T10:19:28;5.47;;;3.10;;
79664;SDS011;69132;44.014;20.918;2023-07-31T10:21:56;3.08;;;2.78;;
79664;SDS011;69132;44.014;20.918;2023-07-31T10:29:28;2.50;;;2.28;;
79664;SDS011;69132;44.014;20.918;2023-07-31T10:34:26;8.20;;;7.40;;
79664;SDS011;69132;44.014;20.918;2023-07-31T10:42:47;2.63;;;2.10;;
79664;SDS011;69132;44.014;20.918;2023-07-31T10:45:23;3.92;;;2.50;;
79664;SDS011;69132;44.014;20.918;2023-07-31T10:48:00;4.38;;;2.92;;
79664;SDS011;69132;44.014;20.918;2023-07-31T10:50:26;3.92;;;2.33;;
79664;SDS011;69132;44.014;20.918;2023-07-31T10:52:56;4.22;;;2.35;;
79664;SDS011;69132;44.014;20.918;2023-07-31T10:55:33;4.35;;;2.35;;
79664;SDS011;69132;44.014;20.918;2023-07-31T10:58:09;3.72;;;3.03;;
79664;SDS011;69132;44.014;20.918;2023-07-31T11:00:39;3.45;;;3.00;;
79664;SDS011;69132;44.014;20.918;2023-07-31T11:03:17;7.93;;;2.92;;
79664;SDS011;69132;44.014;20.918;2023-07-31T11:08:13;3.70;;;2.75;;
79664;SDS011;69132;44.014;20.918;2023-07-31T11:10:40;2.55;;;2.22;;
79664;SDS011;69132;44.014;20.918;2023-07-31T11:13:06;3.80;;;2.70;;
79664;SDS011;69132;44.014;20.918;2023-07-31T11:15:32;3.72;;;2.63;;
79664;SDS011;69132;44.014;20.918;2023-07-31T11:18:00;2.70;;;2.47;;
79664;SDS011;69132;44.014;20.918;2023-07-31T11:20:32;2.50;;;2.30;;
79664;SDS011;69132;44.014;20.918;2023-07-31T11:23:02;2.50;;;2.30;;
79664;SDS011;69132;44.014;20.918;2023-07-31T11:25:29;3.00;;;2.65;;
79664;SDS011;69132;44.014;20.918;2023-07-31T11:27:58;3.10;;;2.72;;
79664;SDS011;69132;44.014;20.918;2023-07-31T11:30:27;6.35;;;3.42;;
79664;SDS011;69132;44.014;20.918;2023-07-31T11:32:56;5.20;;;3.42;;
79664;SDS011;69132;44.014;20.918;2023-07-31T11:35:22;3.75;;;3.38;;
79664;SDS011;69132;44.014;20.918;2023-07-31T11:37:51;10.88;;;3.33;;
79664;SDS011;69132;44.014;20.918;2023-07-31T11:40:17;5.53;;;3.20;;
79664;SDS011;69132;44.014;20.918;2023-07-31T11:45:11;3.30;;;2.97;;
79664;SDS011;69132;44.014;20.918;2023-07-31T11:47:37;5.72;;;2.90;;
79664;SDS011;69132;44.014;20.918;2023-07-31T11:50:05;3.97;;;3.53;;
79664;SDS011;69132;44.014;20.918;2023-07-31T11:52:32;5.28;;;3.58;;
79664;SDS011;69132;44.014;20.918;2023-07-31T11:55:00;3.95;;;3.65;;
79664;SDS011;69132;44.014;20.918;2023-07-31T11:57:26;4.63;;;3.88;;
79664;SDS011;69132;44.014;20.918;2023-07-31T11:59:53;5.05;;;4.30;;
79664;SDS011;69132;44.014;20.918;2023-07-31T12:02:19;5.30;;;4.32;;
79664;SDS011;69132;44.014;20.918;2023-07-31T12:04:46;5.67;;;4.97;;
79664;SDS011;69132;44.014;20.918;2023-07-31T12:07:16;7.47;;;4.28;;
79664;SDS011;69132;44.014;20.918;2023-07-31T12:09:52;7.43;;;4.18;;
79664;SDS011;69132;44.014;20.918;2023-07-31T12:12:21;7.03;;;5.30;;
79664;SDS011;69132;44.014;20.918;2023-07-31T12:14:49;6.30;;;4.47;;
79664;SDS011;69132;44.014;20.918;2023-07-31T12:17:17;7.60;;;5.28;;
79664;SDS011;69132;44.014;20.918;2023-07-31T12:19:43;4.93;;;4.53;;
79664;SDS011;69132;44.014;20.918;2023-07-31T12:22:13;8.55;;;5.07;;
79664;SDS011;69132;44.014;20.918;2023-07-31T12:24:42;5.32;;;4.70;;
79664;SDS011;69132;44.014;20.918;2023-07-31T12:27:12;4.93;;;4.53;;
79664;SDS011;69132;44.014;20.918;2023-07-31T12:29:39;6.20;;;3.63;;
79664;SDS011;69132;44.014;20.918;2023-07-31T12:32:21;4.25;;;3.70;;
79664;SDS011;69132;44.014;20.918;2023-07-31T12:34:53;4.13;;;3.22;;
79664;SDS011;69132;44.014;20.918;2023-07-31T12:37:24;4.13;;;3.65;;
79664;SDS011;69132;44.014;20.918;2023-07-31T12:39:50;4.43;;;4.03;;
79664;SDS011;69132;44.014;20.918;2023-07-31T12:42:19;5.10;;;4.07;;
79664;SDS011;69132;44.014;20.918;2023-07-31T12:44:45;5.63;;;4.07;;
79664;SDS011;69132;44.014;20.918;2023-07-31T12:47:11;6.38;;;4.10;;
79664;SDS011;69132;44.014;20.918;2023-07-31T12:49:39;4.18;;;3.88;;
79664;SDS011;69132;44.014;20.918;2023-07-31T12:52:05;5.30;;;4.55;;
79664;SDS011;69132;44.014;20.918;2023-07-31T12:54:31;7.30;;;4.07;;
79664;SDS011;69132;44.014;20.918;2023-07-31T12:57:00;3.50;;;3.20;;
79664;SDS011;69132;44.014;20.918;2023-07-31T12:59:26;3.08;;;2.63;;
79664;SDS011;69132;44.014;20.918;2023-07-31T13:01:52;3.70;;;2.60;;
79664;SDS011;69132;44.014;20.918;2023-07-31T13:04:18;3.47;;;2.60;;
79664;SDS011;69132;44.014;20.918;2023-07-31T13:06:46;2.33;;;2.13;;
79664;SDS011;69132;44.014;20.918;2023-07-31T13:09:12;2.60;;;2.40;;
79664;SDS011;69132;44.014;20.918;2023-07-31T13:11:38;3.92;;;2.25;;
79664;SDS011;69132;44.014;20.918;2023-07-31T13:14:04;3.72;;;2.50;;
79664;SDS011;69132;44.014;20.918;2023-07-31T13:16:30;5.80;;;2.63;;
79664;SDS011;69132;44.014;20.918;2023-07-31T13:18:56;3.50;;;2.22;;
79664;SDS011;69132;44.014;20.918;2023-07-31T13:21:23;3.38;;;2.60;;
79664;SDS011;69132;44.014;20.918;2023-07-31T13:23:49;3.00;;;2.42;;
79664;SDS011;69132;44.014;20.918;2023-07-31T13:26:15;4.82;;;2.80;;
79664;SDS011;69132;44.014;20.918;2023-07-31T13:28:41;2.25;;;1.98;;
79664;SDS011;69132;44.014;20.918;2023-07-31T13:31:07;3.00;;;2.10;;
79664;SDS011;69132;44.014;20.918;2023-07-31T13:33:33;4.38;;;2.13;;
79664;SDS011;69132;44.014;20.918;2023-07-31T13:35:59;3.80;;;2.15;;
79664;SDS011;69132;44.014;20.918;2023-07-31T13:38:25;4.40;;;2.10;;
79664;SDS011;69132;44.014;20.918;2023-07-31T13:40:56;3.35;;;2.00;;
79664;SDS011;69132;44.014;20.918;2023-07-31T13:43:23;4.80;;;2.28;;
79664;SDS011;69132;44.014;20.918;2023-07-31T13:45:49;3.58;;;2.33;;
79664;SDS011;69132;44.014;20.918;2023-07-31T13:48:15;4.38;;;2.60;;
79664;SDS011;69132;44.014;20.918;2023-07-31T13:50:41;4.25;;;2.20;;
79664;SDS011;69132;44.014;20.918;2023-07-31T13:53:09;4.13;;;2.10;;
79664;SDS011;69132;44.014;20.918;2023-07-31T13:58:17;2.28;;;1.90;;
79664;SDS011;69132;44.014;20.918;2023-07-31T14:00:44;3.40;;;1.90;;
79664;SDS011;69132;44.014;20.918;2023-07-31T14:03:10;2.10;;;1.90;;
79664;SDS011;69132;44.014;20.918;2023-07-31T14:05:36;3.85;;;1.98;;
79664;SDS011;69132;44.014;20.918;2023-07-31T14:08:02;2.80;;;2.60;;
79664;SDS011;69132;44.014;20.918;2023-07-31T14:10:28;3.35;;;2.42;;
79664;SDS011;69132;44.014;20.918;2023-07-31T14:12:54;3.15;;;2.47;;
79664;SDS011;69132;44.014;20.918;2023-07-31T14:15:23;2.05;;;1.85;;
79664;SDS011;69132;44.014;20.918;2023-07-31T14:17:49;4.40;;;2.15;;
79664;SDS011;69132;44.014;20.918;2023-07-31T14:20:15;6.50;;;2.40;;
79664;SDS011;69132;44.014;20.918;2023-07-31T14:22:41;3.95;;;2.33;;
79664;SDS011;69132;44.014;20.918;2023-07-31T14:25:08;8.02;;;3.38;;
79664;SDS011;69132;44.014;20.918;2023-07-31T14:27:35;3.65;;;2.35;;
79664;SDS011;69132;44.014;20.918;2023-07-31T14:30:01;6.88;;;2.60;;
79664;SDS011;69132;44.014;20.918;2023-07-31T14:32:28;3.28;;;2.17;;
79664;SDS011;69132;44.014;20.918;2023-07-31T14:34:54;2.60;;;2.40;;
79664;SDS011;69132;44.014;20.918;2023-07-31T14:37:20;5.90;;;2.72;;
79664;SDS011;69132;44.014;20.918;2023-07-31T14:39:46;2.28;;;1.90;;
79664;SDS011;69132;44.014;20.918;2023-07-31T14:42:12;4.43;;;2.53;;
79664;SDS011;69132;44.014;20.918;2023-07-31T14:44:39;3.22;;;2.08;;
79664;SDS011;69132;44.014;20.918;2023-07-31T14:47:05;5.82;;;2.97;;
79664;SDS011;69132;44.014;20.918;2023-07-31T14:49:31;2.40;;;2.15;;
79664;SDS011;69132;44.014;20.918;2023-07-31T14:51:57;4.57;;;2.70;;
79664;SDS011;69132;44.014;20.918;2023-07-31T14:54:23;3.83;;;2.70;;
79664;SDS011;69132;44.014;20.918;2023-07-31T14:56:50;3.83;;;2.40;;
79664;SDS011;69132;44.014;20.918;2023-07-31T14:59:16;3.95;;;2.47;;
79664;SDS011;69132;44.014;20.918;2023-07-31T15:01:42;3.78;;;2.05;;
79664;SDS011;69132;44.014;20.918;2023-07-31T15:04:09;2.53;;;2.20;;
79664;SDS011;69132;44.014;20.918;2023-07-31T15:06:38;4.07;;;2.95;;
79664;SDS011;69132;44.014;20.918;2023-07-31T15:09:05;2.83;;;2.45;;
79664;SDS011;69132;44.014;20.918;2023-07-31T15:11:33;4.22;;;2.78;;
79664;SDS011;69132;44.014;20.918;2023-07-31T15:13:59;5.47;;;4.88;;
79664;SDS011;69132;44.014;20.918;2023-07-31T15:16:25;28.23;;;25.30;;
79664;SDS011;69132;44.014;20.918;2023-07-31T15:18:53;59.83;;;46.00;;